createdAt,value
2022-10-16T00:01:19.214Z,16.37
2022-10-16T00:03:47.603Z,16.56
2022-10-16T00:06:33.492Z,16.47
2022-10-16T00:09:01.230Z,16.46
2022-10-16T00:11:31.432Z,16.57
2022-10-16T00:14:00.780Z,16.25
2022-10-16T00:16:29.413Z,16.50
2022-10-16T00:18:57.136Z,16.68
2022-10-16T00:21:27.406Z,16.01
2022-10-16T00:24:13.489Z,16.02
2022-10-16T00:26:41.023Z,16.08
2022-10-16T00:29:09.815Z,15.97
2022-10-16T00:31:37.251Z,15.75
2022-10-16T00:34:04.626Z,15.84
2022-10-16T00:36:33.100Z,15.85
2022-10-16T00:39:02.185Z,15.67
2022-10-16T00:41:31.050Z,15.65
2022-10-16T00:44:01.084Z,15.20
2022-10-16T00:46:41.471Z,15.59
2022-10-16T00:49:14.472Z,16.18
2022-10-16T00:51:44.703Z,15.68
2022-10-16T00:54:23.032Z,15.45
2022-10-16T00:56:51.260Z,15.48
2022-10-16T00:59:26.427Z,15.72
2022-10-16T01:01:54.926Z,15.81
2022-10-16T01:04:23.383Z,15.73
2022-10-16T01:07:05.979Z,15.96
2022-10-16T01:09:53.687Z,15.79
2022-10-16T01:12:38.641Z,15.57
2022-10-16T01:15:11.995Z,15.37
2022-10-16T01:17:45.033Z,15.65
2022-10-16T01:20:22.455Z,15.46
2022-10-16T01:23:09.534Z,15.59
2022-10-16T01:25:53.450Z,15.47
2022-10-16T01:28:24.008Z,15.45
2022-10-16T01:30:54.043Z,15.05
2022-10-16T01:33:24.840Z,14.75
2022-10-16T01:36:04.572Z,14.95
2022-10-16T01:38:36.238Z,15.21
2022-10-16T01:41:11.726Z,15.20
2022-10-16T01:43:42.570Z,15.20
2022-10-16T01:46:10.891Z,14.76
2022-10-16T01:48:39.149Z,14.43
2022-10-16T01:51:11.887Z,14.51
2022-10-16T01:53:41.405Z,14.39
2022-10-16T01:56:10.997Z,14.14
2022-10-16T01:58:47.270Z,13.66
2022-10-16T02:03:51.380Z,13.68
2022-10-16T02:06:18.732Z,13.77
2022-10-16T02:08:46.083Z,13.12
2022-10-16T02:11:13.727Z,13.21
2022-10-16T02:13:50.914Z,13.23
2022-10-16T02:16:18.644Z,13.39
2022-10-16T02:18:46.062Z,13.76
2022-10-16T02:21:31.405Z,13.51
2022-10-16T02:24:04.356Z,13.89
2022-10-16T02:26:37.620Z,13.91
2022-10-16T02:29:09.371Z,14.03
2022-10-16T02:31:40.069Z,14.15
2022-10-16T02:34:08.092Z,13.74
2022-10-16T02:36:35.957Z,13.92
2022-10-16T02:39:04.885Z,13.66
2022-10-16T02:41:33.088Z,13.58
2022-10-16T02:44:00.662Z,14.00
2022-10-16T02:46:28.020Z,13.62
2022-10-16T02:48:55.603Z,13.85
2022-10-16T02:51:22.953Z,13.90
2022-10-16T02:53:50.329Z,13.84
2022-10-16T02:58:50.130Z,13.27
2022-10-16T03:01:17.948Z,13.17
2022-10-16T03:03:45.354Z,13.01
2022-10-16T03:06:12.668Z,13.40
2022-10-16T03:08:40.279Z,13.40
2022-10-16T03:11:07.634Z,13.14
2022-10-16T03:13:34.971Z,13.33
2022-10-16T03:16:02.548Z,13.11
2022-10-16T03:18:29.857Z,13.24
2022-10-16T03:20:57.218Z,13.24
2022-10-16T03:23:25.076Z,13.23
2022-10-16T03:25:52.490Z,13.06
2022-10-16T03:28:19.897Z,12.95
2022-10-16T03:30:47.678Z,12.71
2022-10-16T03:33:15.086Z,13.14
2022-10-16T03:35:42.419Z,12.82
2022-10-16T03:38:10.009Z,12.95
2022-10-16T03:40:37.391Z,13.05
2022-10-16T03:43:04.887Z,13.06
2022-10-16T03:45:32.512Z,12.90
2022-10-16T03:47:59.835Z,12.83
2022-10-16T03:50:27.173Z,12.79
2022-10-16T03:52:54.757Z,12.87
2022-10-16T03:55:22.138Z,12.71
2022-10-16T03:57:49.448Z,12.73
2022-10-16T04:00:17.082Z,12.14
2022-10-16T04:05:17.004Z,12.46
2022-10-16T04:07:44.605Z,12.17
2022-10-16T04:10:11.916Z,12.32
2022-10-16T04:12:39.277Z,12.49
2022-10-16T04:15:07.231Z,12.67
2022-10-16T04:17:34.541Z,12.17
2022-10-16T04:20:01.878Z,12.29
2022-10-16T04:22:29.477Z,12.04
2022-10-16T04:24:56.849Z,12.05
2022-10-16T04:27:24.464Z,12.13
2022-10-16T04:29:52.246Z,12.06
2022-10-16T04:32:19.581Z,12.11
2022-10-16T04:34:46.905Z,12.48
2022-10-16T04:37:14.501Z,12.58
2022-10-16T04:39:41.879Z,12.27
2022-10-16T04:42:09.459Z,12.28
2022-10-16T04:44:37.048Z,11.92
2022-10-16T04:47:05.639Z,12.27
2022-10-16T04:49:32.960Z,12.44
2022-10-16T04:52:00.561Z,12.02
2022-10-16T04:54:27.904Z,12.32
2022-10-16T04:56:55.324Z,12.24
2022-10-16T04:59:23.278Z,11.61
2022-10-16T05:01:50.703Z,11.89
2022-10-16T05:04:18.082Z,11.63
2022-10-16T05:06:45.680Z,11.97
2022-10-16T05:09:13.011Z,11.53
2022-10-16T05:11:40.361Z,11.28
2022-10-16T05:14:08.051Z,11.40
2022-10-16T05:16:35.441Z,11.58
2022-10-16T05:19:26.277Z,11.76
2022-10-16T05:21:50.403Z,11.60
2022-10-16T05:24:17.723Z,11.85
2022-10-16T05:26:45.060Z,12.05
2022-10-16T05:29:13.006Z,11.95
2022-10-16T05:31:40.368Z,12.21
2022-10-16T05:34:07.690Z,12.45
2022-10-16T05:36:35.522Z,12.44
2022-10-16T05:39:03.023Z,12.23
2022-10-16T05:41:30.340Z,12.34
2022-10-16T05:43:57.914Z,12.22
2022-10-16T05:46:25.272Z,12.15
2022-10-16T05:48:54.244Z,12.28
2022-10-16T05:51:21.922Z,12.13
2022-10-16T05:53:49.229Z,11.93
2022-10-16T05:56:16.919Z,11.93
2022-10-16T05:58:45.561Z,11.86
2022-10-16T06:01:15.513Z,11.68
2022-10-16T06:03:43.194Z,12.29
2022-10-16T06:06:12.492Z,12.20
2022-10-16T06:08:40.734Z,11.85
2022-10-16T06:11:11.100Z,11.80
2022-10-16T06:13:38.463Z,12.55
2022-10-16T06:16:06.225Z,12.72
2022-10-16T06:18:33.869Z,13.26
2022-10-16T06:21:01.278Z,14.02
2022-10-16T06:23:30.025Z,14.39
2022-10-16T06:26:05.981Z,14.87
2022-10-16T06:28:33.928Z,15.51
2022-10-16T06:31:05.609Z,15.12
2022-10-16T06:33:36.376Z,15.74
2022-10-16T06:36:09.254Z,16.16
2022-10-16T06:38:36.971Z,16.07
2022-10-16T06:41:05.561Z,17.01
2022-10-16T06:43:33.326Z,15.65
2022-10-16T06:46:01.334Z,15.84
2022-10-16T06:48:32.155Z,16.06
2022-10-16T06:51:00.882Z,16.05
2022-10-16T06:53:39.587Z,16.27
2022-10-16T06:56:17.205Z,16.38
2022-10-16T06:58:44.981Z,16.20
2022-10-16T07:01:13.274Z,16.47
2022-10-16T07:03:42.853Z,16.46
2022-10-16T07:06:13.438Z,16.35
2022-10-16T07:08:42.481Z,16.17
2022-10-16T07:11:12.884Z,16.45
2022-10-16T07:13:41.499Z,15.88
2022-10-16T07:16:10.203Z,16.46
2022-10-16T07:18:39.963Z,16.54
2022-10-16T07:21:08.725Z,16.91
2022-10-16T07:23:36.051Z,17.21
2022-10-16T07:26:04.842Z,17.60
2022-10-16T07:28:33.239Z,18.15
2022-10-16T07:31:08.818Z,17.76
2022-10-16T07:33:36.439Z,17.68
2022-10-16T07:36:04.032Z,17.66
2022-10-16T07:38:32.817Z,17.67
2022-10-16T07:41:01.933Z,17.72
2022-10-16T07:43:29.461Z,17.51
2022-10-16T07:45:58.300Z,16.76
2022-10-16T07:48:29.751Z,16.85
2022-10-16T07:51:05.548Z,16.84
2022-10-16T07:53:33.972Z,16.86
2022-10-16T07:56:06.847Z,17.27
2022-10-16T07:58:35.360Z,17.54
2022-10-16T08:01:06.296Z,18.01
2022-10-16T08:03:34.220Z,18.03
2022-10-16T08:06:01.842Z,18.09
2022-10-16T08:08:29.825Z,17.80
2022-10-16T08:10:57.656Z,17.21
2022-10-16T08:13:24.984Z,17.17
2022-10-16T08:15:52.319Z,17.67
2022-10-16T08:18:19.904Z,17.63
2022-10-16T08:20:47.234Z,17.63
2022-10-16T08:23:15.054Z,17.50
2022-10-16T08:25:42.768Z,17.34
2022-10-16T08:28:11.330Z,17.24
2022-10-16T08:30:38.726Z,17.58
2022-10-16T08:33:07.479Z,16.58
2022-10-16T08:35:34.804Z,17.07
2022-10-16T08:38:04.810Z,17.56
2022-10-16T08:40:34.369Z,17.61
2022-10-16T08:43:20.422Z,16.99
2022-10-16T08:46:20.233Z,18.16
2022-10-16T08:48:52.895Z,18.49
2022-10-16T08:51:33.265Z,18.57
2022-10-16T08:54:07.203Z,17.87
2022-10-16T08:56:34.829Z,18.50
2022-10-16T08:59:03.226Z,18.69
2022-10-16T09:01:39.613Z,19.59
2022-10-16T09:04:19.894Z,19.43
2022-10-16T09:06:49.614Z,19.98
2022-10-16T09:09:32.471Z,19.60
2022-10-16T09:12:22.035Z,19.10
2022-10-16T09:15:14.108Z,19.21
2022-10-16T09:17:59.458Z,19.44
2022-10-16T09:20:42.260Z,18.87
2022-10-16T09:23:15.751Z,19.21
2022-10-16T09:25:48.716Z,19.26
2022-10-16T09:28:18.031Z,19.32
2022-10-16T09:30:46.459Z,18.91
2022-10-16T09:33:14.954Z,19.05
2022-10-16T09:35:45.677Z,19.37
2022-10-16T09:38:34.017Z,19.73
2022-10-16T09:41:03.825Z,18.88
2022-10-16T09:44:02.795Z,19.15
2022-10-16T09:46:32.742Z,19.56
2022-10-16T09:49:02.893Z,19.01
2022-10-16T09:51:38.158Z,19.11
2022-10-16T09:54:20.427Z,19.03
2022-10-16T09:56:52.761Z,19.18
2022-10-16T09:59:25.049Z,19.70
2022-10-16T10:01:56.186Z,19.18
2022-10-16T10:04:25.073Z,19.84
2022-10-16T10:06:54.094Z,20.06
2022-10-16T10:09:29.282Z,19.11
2022-10-16T10:12:04.309Z,20.14
2022-10-16T10:14:53.316Z,20.26
2022-10-16T10:17:23.469Z,19.67
2022-10-16T10:20:02.308Z,20.20
2022-10-16T10:22:46.593Z,20.45
2022-10-16T10:25:13.845Z,20.83
2022-10-16T10:27:47.369Z,20.69
2022-10-16T10:30:38.517Z,20.34
2022-10-16T10:33:15.170Z,19.50
2022-10-16T10:35:59.256Z,19.68
2022-10-16T10:38:35.689Z,20.11
2022-10-16T10:41:34.435Z,19.40
2022-10-16T10:44:26.353Z,20.19
2022-10-16T10:47:02.294Z,20.11
2022-10-16T10:49:52.902Z,19.91
2022-10-16T10:52:47.989Z,20.08
2022-10-16T10:55:46.735Z,20.57
2022-10-16T10:58:26.171Z,20.77
2022-10-16T11:01:12.794Z,20.53
2022-10-16T11:03:59.022Z,19.81
2022-10-16T11:06:47.324Z,19.76
2022-10-16T11:09:21.863Z,20.40
2022-10-16T11:11:55.938Z,20.54
2022-10-16T11:14:32.947Z,20.58
2022-10-16T11:17:05.631Z,20.88
2022-10-16T11:19:41.320Z,21.25
2022-10-16T11:22:47.557Z,21.56
2022-10-16T11:25:22.313Z,21.82
2022-10-16T11:28:11.115Z,21.83
2022-10-16T11:30:47.234Z,21.79
2022-10-16T11:33:41.745Z,21.20
2022-10-16T11:36:21.140Z,22.24
2022-10-16T11:38:52.234Z,22.53
2022-10-16T11:41:27.652Z,22.83
2022-10-16T11:44:32.942Z,22.84
2022-10-16T11:50:18.857Z,22.22
2022-10-16T11:52:51.922Z,22.69
2022-10-16T11:55:22.348Z,23.52
2022-10-16T11:57:53.193Z,23.23
2022-10-16T12:00:20.634Z,23.52
2022-10-16T12:03:21.014Z,23.52
2022-10-16T12:06:26.119Z,23.32
2022-10-16T12:08:54.886Z,23.43
2022-10-16T12:11:37.082Z,23.46
2022-10-16T12:14:08.273Z,23.25
2022-10-16T12:16:38.734Z,23.66
2022-10-16T12:19:17.080Z,23.50
2022-10-16T12:21:45.211Z,23.43
2022-10-16T12:24:35.435Z,23.07
2022-10-16T12:27:03.713Z,23.41
2022-10-16T12:29:38.119Z,23.39
2022-10-16T12:32:41.836Z,23.72
2022-10-16T12:35:19.245Z,23.81
2022-10-16T12:37:46.722Z,22.90
2022-10-16T12:40:23.952Z,23.19
2022-10-16T12:42:51.498Z,22.56
2022-10-16T12:45:24.957Z,22.36
2022-10-16T12:47:54.911Z,22.51
2022-10-16T12:50:37.456Z,22.12
2022-10-16T12:53:19.525Z,22.39
2022-10-16T12:56:02.828Z,22.00
2022-10-16T12:59:05.346Z,21.85
2022-10-16T13:02:03.578Z,21.33
2022-10-16T13:04:58.080Z,21.96
2022-10-16T13:07:31.363Z,21.45
2022-10-16T13:10:03.919Z,22.18
2022-10-16T13:12:41.752Z,21.52
2022-10-16T13:15:30.997Z,21.54
2022-10-16T13:18:41.777Z,21.85
2022-10-16T13:21:33.435Z,22.03
2022-10-16T13:24:09.697Z,22.02
2022-10-16T13:26:46.224Z,21.85
2022-10-16T13:29:15.345Z,21.60
2022-10-16T13:31:44.011Z,21.63
2022-10-16T13:34:16.820Z,21.66
2022-10-16T13:36:52.271Z,21.36
2022-10-16T13:39:28.175Z,21.45
2022-10-16T13:42:06.392Z,21.45
2022-10-16T13:44:51.117Z,21.78
2022-10-16T13:47:24.776Z,21.65
2022-10-16T13:50:01.671Z,21.91
2022-10-16T13:52:29.618Z,21.52
2022-10-16T13:55:00.932Z,21.69
2022-10-16T13:57:29.923Z,21.46
2022-10-16T13:59:57.242Z,21.45
2022-10-16T14:02:31.517Z,21.45
2022-10-16T14:04:59.784Z,21.64
2022-10-16T14:07:34.186Z,21.36
2022-10-16T14:10:07.461Z,21.90
2022-10-16T14:12:35.593Z,21.50
2022-10-16T14:15:03.822Z,21.38
2022-10-16T14:17:34.166Z,21.33
2022-10-16T14:20:06.635Z,21.22
2022-10-16T14:22:36.369Z,21.57
2022-10-16T14:25:20.807Z,22.06
2022-10-16T14:28:17.593Z,21.41
2022-10-16T14:30:56.792Z,21.60
2022-10-16T14:33:30.765Z,21.40
2022-10-16T14:36:10.180Z,21.54
2022-10-16T14:38:39.356Z,21.43
2022-10-16T14:41:07.432Z,21.50
2022-10-16T14:43:35.572Z,21.74
2022-10-16T14:46:06.612Z,21.70
2022-10-16T14:48:34.020Z,21.70
2022-10-16T14:51:01.411Z,21.73
2022-10-16T14:53:29.020Z,20.74
2022-10-16T14:55:56.353Z,20.87
2022-10-16T14:58:24.525Z,20.96
2022-10-16T15:00:52.099Z,21.27
2022-10-16T15:03:19.477Z,21.41
2022-10-16T15:05:46.823Z,20.73
2022-10-16T15:08:14.445Z,21.15
2022-10-16T15:10:44.171Z,20.87
2022-10-16T15:13:14.063Z,21.27
2022-10-16T15:15:44.882Z,21.64
2022-10-16T15:18:12.399Z,21.22
2022-10-16T15:20:40.425Z,21.20
2022-10-16T15:23:16.618Z,20.52
2022-10-16T15:25:49.515Z,20.67
2022-10-16T15:28:17.889Z,21.16
2022-10-16T15:30:48.283Z,21.21
2022-10-16T15:33:21.135Z,21.08
2022-10-16T15:35:52.813Z,20.82
2022-10-16T15:38:22.955Z,20.55
2022-10-16T15:40:50.901Z,20.47
2022-10-16T15:43:19.771Z,20.76
2022-10-16T15:46:07.690Z,20.42
2022-10-16T15:48:35.350Z,20.49
2022-10-16T15:51:06.652Z,19.96
2022-10-16T15:53:35.199Z,20.18
2022-10-16T15:56:08.079Z,19.89
2022-10-16T15:58:35.413Z,19.40
2022-10-16T16:01:04.588Z,19.50
2022-10-16T16:03:32.737Z,19.32
2022-10-16T16:06:05.464Z,19.06
2022-10-16T16:08:34.029Z,18.99
2022-10-16T16:11:03.184Z,19.06
2022-10-16T16:13:30.542Z,18.72
2022-10-16T16:15:58.115Z,18.53
2022-10-16T16:18:25.509Z,18.63
2022-10-16T16:20:53.308Z,18.46
2022-10-16T16:23:21.067Z,18.50
2022-10-16T16:26:26.901Z,18.41
2022-10-16T16:28:55.341Z,18.41
2022-10-16T16:31:25.946Z,18.39
2022-10-16T16:33:54.276Z,18.40
2022-10-16T16:36:21.711Z,18.28
2022-10-16T16:38:49.119Z,17.98
2022-10-16T16:41:21.815Z,17.76
2022-10-16T16:43:49.767Z,17.51
2022-10-16T16:46:17.427Z,17.86
2022-10-16T16:48:45.460Z,17.67
2022-10-16T16:51:20.294Z,17.68
2022-10-16T16:53:52.516Z,17.53
2022-10-16T16:56:21.354Z,17.62
2022-10-16T16:58:50.734Z,17.29
2022-10-16T17:01:20.199Z,17.48
2022-10-16T17:03:51.711Z,17.57
2022-10-16T17:06:24.503Z,17.32
2022-10-16T17:08:52.526Z,17.33
2022-10-16T17:11:23.033Z,17.05
2022-10-16T17:13:55.533Z,17.19
2022-10-16T17:16:27.765Z,16.70
2022-10-16T17:18:55.637Z,16.77
2022-10-16T17:21:23.649Z,16.50
2022-10-16T17:23:53.505Z,16.36
2022-10-16T17:26:21.446Z,16.06
2022-10-16T17:28:53.526Z,16.27
2022-10-16T17:31:24.294Z,16.60
2022-10-16T17:33:52.441Z,16.58
2022-10-16T17:36:22.512Z,16.31
2022-10-16T17:38:50.984Z,16.35
2022-10-16T17:41:24.041Z,16.45
2022-10-16T17:43:52.949Z,16.12
2022-10-16T17:46:22.367Z,15.91
2022-10-16T17:48:52.705Z,15.76
2022-10-16T17:51:24.051Z,15.86
2022-10-16T17:53:57.751Z,16.05
2022-10-16T17:56:26.774Z,15.99
2022-10-16T17:58:56.505Z,15.90
2022-10-16T18:01:27.094Z,15.59
2022-10-16T18:03:57.888Z,15.66
2022-10-16T18:06:26.298Z,15.95
2022-10-16T18:08:55.565Z,15.79
2022-10-16T18:11:23.769Z,15.58
2022-10-16T18:13:55.448Z,15.51
2022-10-16T18:16:24.688Z,15.45
2022-10-16T18:18:52.772Z,15.53
2022-10-16T18:21:20.960Z,15.47
2022-10-16T18:23:51.875Z,15.59
2022-10-16T18:26:21.142Z,15.52
2022-10-16T18:28:51.258Z,15.28
2022-10-16T18:31:22.204Z,15.23
2022-10-16T18:33:52.929Z,15.27
2022-10-16T18:36:23.372Z,14.88
2022-10-16T18:38:51.546Z,15.17
2022-10-16T18:41:19.653Z,14.93
2022-10-16T18:43:47.838Z,14.95
2022-10-16T18:46:21.889Z,14.90
2022-10-16T18:48:51.720Z,15.06
2022-10-16T18:51:28.047Z,14.82
2022-10-16T18:54:03.484Z,14.73
2022-10-16T18:56:32.631Z,15.00
2022-10-16T18:59:04.525Z,14.86
2022-10-16T19:01:35.190Z,15.18
2022-10-16T19:04:10.172Z,14.55
2022-10-16T19:06:43.855Z,14.65
2022-10-16T19:09:12.853Z,14.48
2022-10-16T19:11:42.022Z,14.84
2022-10-16T19:14:12.029Z,14.31
2022-10-16T19:16:40.460Z,14.43
2022-10-16T19:19:15.377Z,14.32
2022-10-16T19:21:43.795Z,14.24
2022-10-16T19:24:15.044Z,14.50
2022-10-16T19:26:43.724Z,14.32
2022-10-16T19:29:11.651Z,14.26
2022-10-16T19:31:39.245Z,14.06
2022-10-16T19:34:07.685Z,14.51
2022-10-16T19:36:37.299Z,14.06
2022-10-16T19:39:15.057Z,13.89
2022-10-16T19:41:42.939Z,13.47
2022-10-16T19:44:13.153Z,13.56
2022-10-16T19:46:40.924Z,13.46
2022-10-16T19:49:11.053Z,13.91
2022-10-16T19:51:39.177Z,13.58
2022-10-16T19:54:09.233Z,13.97
2022-10-16T19:56:37.515Z,13.84
2022-10-16T19:59:06.274Z,14.37
2022-10-16T20:01:34.318Z,13.98
2022-10-16T20:04:04.878Z,13.93
2022-10-16T20:06:32.472Z,13.87
2022-10-16T20:09:00.169Z,13.75
2022-10-16T20:11:30.412Z,13.53
2022-10-16T20:13:58.290Z,13.42
2022-10-16T20:16:27.101Z,13.74
2022-10-16T20:18:55.318Z,13.93
2022-10-16T20:21:30.057Z,13.62
2022-10-16T20:24:00.134Z,13.40
2022-10-16T20:26:27.653Z,13.82
2022-10-16T20:28:55.368Z,13.52
2022-10-16T20:31:26.798Z,13.90
2022-10-16T20:33:56.835Z,13.74
2022-10-16T20:36:25.939Z,13.71
2022-10-16T20:38:53.488Z,14.00
2022-10-16T20:41:21.049Z,14.02
2022-10-16T20:43:50.058Z,13.78
2022-10-16T20:46:19.891Z,13.37
2022-10-16T20:48:47.473Z,13.67
2022-10-16T20:51:20.519Z,13.92
2022-10-16T20:53:51.708Z,14.05
2022-10-16T20:56:19.299Z,14.14
2022-10-16T20:58:46.607Z,13.65
2022-10-16T21:01:16.336Z,13.60
2022-10-16T21:03:44.781Z,13.61
2022-10-16T21:06:12.271Z,13.55
2022-10-16T21:08:41.248Z,13.26
2022-10-16T21:11:17.980Z,13.38
2022-10-16T21:13:45.872Z,13.25
2022-10-16T21:16:14.816Z,13.14
2022-10-16T21:18:44.692Z,13.28
2022-10-16T21:21:30.850Z,13.42
2022-10-16T21:23:59.160Z,13.39
2022-10-16T21:26:27.757Z,13.52
2022-10-16T21:28:59.996Z,13.46
2022-10-16T21:31:28.079Z,13.61
2022-10-16T21:33:56.553Z,13.59
2022-10-16T21:36:26.255Z,12.99
2022-10-16T21:38:54.469Z,13.42
2022-10-16T21:41:26.995Z,13.33
2022-10-16T21:43:56.156Z,13.29
2022-10-16T21:46:25.862Z,13.20
2022-10-16T21:48:54.438Z,13.32
2022-10-16T21:51:51.675Z,13.28
2022-10-16T21:54:21.196Z,13.11
2022-10-16T21:56:48.860Z,13.08
2022-10-16T21:59:16.397Z,12.83
2022-10-16T22:01:43.974Z,12.83
2022-10-16T22:04:12.736Z,13.12
2022-10-16T22:06:40.507Z,13.06
2022-10-16T22:09:08.670Z,13.14
2022-10-16T22:11:37.598Z,13.21
2022-10-16T22:14:07.284Z,12.72
2022-10-16T22:16:34.692Z,12.92
2022-10-16T22:19:03.720Z,12.60
2022-10-16T22:21:32.410Z,12.73
2022-10-16T22:24:00.602Z,12.57
2022-10-16T22:26:28.277Z,12.65
2022-10-16T22:28:56.148Z,12.40
2022-10-16T22:31:23.957Z,12.62
2022-10-16T22:33:58.824Z,12.71
2022-10-16T22:36:26.802Z,12.91
2022-10-16T22:38:54.668Z,12.66
2022-10-16T22:41:22.541Z,12.83
2022-10-16T22:43:50.233Z,12.69
2022-10-16T22:46:20.209Z,12.54
2022-10-16T22:48:47.538Z,12.61
2022-10-16T22:51:16.897Z,12.38
2022-10-16T22:53:46.570Z,12.51
2022-10-16T22:56:15.396Z,12.54
2022-10-16T22:58:42.868Z,12.48
2022-10-16T23:01:32.253Z,12.47
2022-10-16T23:04:01.508Z,12.61
2022-10-16T23:06:29.593Z,12.22
2022-10-16T23:08:58.819Z,12.27
2022-10-16T23:11:27.319Z,12.55
2022-10-16T23:13:55.154Z,12.32
2022-10-16T23:16:22.985Z,12.39
2022-10-16T23:18:50.768Z,12.36
2022-10-16T23:21:21.380Z,12.04
2022-10-16T23:23:49.043Z,12.01
2022-10-16T23:26:19.053Z,12.24
2022-10-16T23:28:46.988Z,12.28
2022-10-16T23:31:15.079Z,12.37
2022-10-16T23:33:42.937Z,12.40
2022-10-16T23:36:13.008Z,12.50
2022-10-16T23:38:40.573Z,11.99
2022-10-16T23:41:09.657Z,11.61
2022-10-16T23:43:37.289Z,11.74
2022-10-16T23:46:05.990Z,11.68
2022-10-16T23:48:33.396Z,11.83
2022-10-16T23:51:01.244Z,11.96
2022-10-16T23:53:28.551Z,12.11
2022-10-16T23:55:56.052Z,12.34
2022-10-16T23:58:24.372Z,12.40
